createdAt,value
2022-07-29T00:00:57.018Z,48.72
2022-07-29T00:03:23.604Z,49.30
2022-07-29T00:05:50.123Z,49.05
2022-07-29T00:08:16.620Z,48.94
2022-07-29T00:10:43.312Z,48.86
2022-07-29T00:13:09.819Z,48.61
2022-07-29T00:15:36.379Z,48.80
2022-07-29T00:18:02.881Z,48.55
2022-07-29T00:20:29.398Z,48.36
2022-07-29T00:22:55.882Z,48.15
2022-07-29T00:25:22.881Z,48.69
2022-07-29T00:27:49.499Z,48.78
2022-07-29T00:30:16.019Z,48.69
2022-07-29T00:32:42.573Z,48.92
2022-07-29T00:35:28.324Z,48.54
2022-07-29T00:37:54.902Z,48.64
2022-07-29T00:40:23.391Z,48.32
2022-07-29T00:42:51.582Z,48.52
2022-07-29T00:45:18.587Z,48.13
2022-07-29T00:47:45.609Z,48.00
2022-07-29T00:50:13.430Z,48.47
2022-07-29T00:52:41.149Z,48.63
2022-07-29T00:55:10.471Z,48.78
2022-07-29T00:57:37.626Z,48.86
2022-07-29T01:00:09.699Z,48.73
2022-07-29T01:02:36.506Z,49.19
2022-07-29T01:05:04.841Z,48.86
2022-07-29T01:07:33.190Z,49.38
2022-07-29T01:09:59.935Z,49.35
2022-07-29T01:12:28.265Z,49.57
2022-07-29T01:14:55.992Z,49.37
2022-07-29T01:17:29.982Z,49.95
2022-07-29T01:20:12.400Z,49.85
2022-07-29T01:23:12.620Z,49.75
2022-07-29T01:25:46.652Z,49.87
2022-07-29T01:29:01.133Z,50.16
2022-07-29T01:31:49.139Z,50.03
2022-07-29T01:34:32.383Z,49.38
2022-07-29T01:37:05.094Z,49.17
2022-07-29T01:39:36.526Z,48.58
2022-07-29T01:42:12.244Z,48.28
2022-07-29T01:44:46.910Z,48.27
2022-07-29T01:47:16.749Z,48.48
2022-07-29T01:49:48.525Z,48.30
2022-07-29T01:52:24.822Z,48.65
2022-07-29T01:54:56.916Z,48.53
2022-07-29T01:57:27.518Z,48.11
2022-07-29T01:59:54.644Z,48.10
2022-07-29T02:02:22.530Z,48.47
2022-07-29T02:04:50.684Z,48.23
2022-07-29T02:07:19.438Z,47.98
2022-07-29T02:09:46.973Z,48.00
2022-07-29T02:12:14.313Z,47.84
2022-07-29T02:14:47.153Z,47.84
2022-07-29T02:17:14.493Z,47.98
2022-07-29T02:19:42.286Z,47.80
2022-07-29T02:22:09.635Z,48.00
2022-07-29T02:24:38.448Z,47.68
2022-07-29T02:27:05.096Z,47.68
2022-07-29T02:29:33.259Z,47.84
2022-07-29T02:32:00.476Z,47.84
2022-07-29T02:34:27.989Z,48.00
2022-07-29T02:36:55.292Z,47.61
2022-07-29T02:39:22.655Z,47.93
2022-07-29T02:41:51.826Z,47.92
2022-07-29T02:44:19.448Z,47.83
2022-07-29T02:46:51.032Z,47.65
2022-07-29T02:49:26.696Z,47.87
2022-07-29T02:52:00.098Z,47.79
2022-07-29T02:54:49.669Z,47.98
2022-07-29T02:57:35.994Z,48.03
2022-07-29T03:00:22.551Z,48.29
2022-07-29T03:02:52.220Z,48.04
2022-07-29T03:05:20.870Z,48.23
2022-07-29T03:07:52.262Z,47.83
2022-07-29T03:10:19.258Z,47.92
2022-07-29T03:12:46.186Z,47.98
2022-07-29T03:15:13.203Z,47.72
2022-07-29T03:17:40.940Z,47.59
2022-07-29T03:20:08.875Z,47.67
2022-07-29T03:22:44.437Z,47.63
2022-07-29T03:25:12.312Z,47.03
2022-07-29T03:27:38.822Z,46.86
2022-07-29T03:30:06.830Z,46.52
2022-07-29T03:32:35.713Z,46.59
2022-07-29T03:35:03.057Z,46.17
2022-07-29T03:37:31.405Z,46.28
2022-07-29T03:39:58.903Z,46.21
2022-07-29T03:42:32.427Z,46.20
2022-07-29T03:45:03.397Z,46.26
2022-07-29T03:47:50.224Z,46.10
2022-07-29T03:50:20.165Z,46.17
2022-07-29T03:52:46.809Z,45.82
2022-07-29T03:55:13.461Z,45.54
2022-07-29T03:57:40.624Z,45.89
2022-07-29T04:00:08.117Z,45.70
2022-07-29T04:02:34.613Z,45.97
2022-07-29T04:05:01.137Z,45.93
2022-07-29T04:07:27.680Z,46.09
2022-07-29T04:09:54.174Z,46.39
2022-07-29T04:12:21.904Z,46.53
2022-07-29T04:14:48.401Z,46.66
2022-07-29T04:17:14.881Z,46.68
2022-07-29T04:19:41.408Z,46.67
2022-07-29T04:22:07.864Z,46.72
2022-07-29T04:24:34.342Z,47.11
2022-07-29T04:27:00.810Z,47.00
2022-07-29T04:29:27.309Z,47.42
2022-07-29T04:31:53.779Z,47.74
2022-07-29T04:34:21.121Z,47.74
2022-07-29T04:36:47.784Z,47.77
2022-07-29T04:39:18.066Z,47.89
2022-07-29T04:41:48.126Z,48.23
2022-07-29T04:44:14.852Z,48.14
2022-07-29T04:46:41.624Z,48.64
2022-07-29T04:49:08.748Z,48.38
2022-07-29T04:51:36.338Z,48.52
2022-07-29T04:54:02.822Z,48.60
2022-07-29T04:56:29.359Z,48.66
2022-07-29T04:58:56.045Z,48.71
2022-07-29T05:01:22.551Z,48.87
2022-07-29T05:03:49.443Z,48.63
2022-07-29T05:06:15.967Z,48.67
2022-07-29T05:08:42.487Z,48.72
2022-07-29T05:11:12.545Z,48.99
2022-07-29T05:13:46.179Z,49.12
2022-07-29T05:16:14.120Z,49.64
2022-07-29T05:18:40.800Z,49.53
2022-07-29T05:21:07.246Z,50.07
2022-07-29T05:23:33.698Z,50.00
2022-07-29T05:26:00.209Z,50.14
2022-07-29T05:28:26.665Z,49.67
2022-07-29T05:30:53.219Z,49.44
2022-07-29T05:33:35.124Z,49.51
2022-07-29T05:36:08.465Z,49.34
2022-07-29T05:38:38.291Z,49.22
2022-07-29T05:41:05.585Z,49.59
2022-07-29T05:43:32.684Z,49.68
2022-07-29T05:45:59.322Z,49.73
2022-07-29T05:48:26.265Z,49.76
2022-07-29T05:50:52.767Z,49.61
2022-07-29T05:53:20.861Z,49.50
2022-07-29T05:55:48.639Z,48.68
2022-07-29T05:58:15.126Z,48.85
2022-07-29T06:00:41.640Z,48.55
2022-07-29T06:03:08.310Z,49.17
2022-07-29T06:05:34.791Z,48.60
2022-07-29T06:08:01.254Z,48.59
2022-07-29T06:10:27.795Z,48.37
2022-07-29T06:12:54.576Z,49.11
2022-07-29T06:15:21.097Z,48.93
2022-07-29T06:17:59.973Z,49.87
2022-07-29T06:20:31.237Z,49.30
2022-07-29T06:22:58.369Z,48.70
2022-07-29T06:25:24.835Z,48.57
2022-07-29T06:27:51.258Z,49.04
2022-07-29T06:30:17.758Z,50.22
2022-07-29T06:32:44.802Z,49.57
2022-07-29T06:35:37.580Z,49.58
2022-07-29T06:37:59.645Z,49.68
2022-07-29T06:40:45.390Z,49.98
2022-07-29T06:43:11.881Z,50.10
2022-07-29T06:45:42.033Z,50.54
2022-07-29T06:48:09.086Z,50.81
2022-07-29T06:50:35.581Z,51.35
2022-07-29T06:53:02.069Z,51.19
2022-07-29T06:55:28.519Z,51.63
2022-07-29T06:57:54.981Z,52.14
2022-07-29T07:00:21.447Z,52.13
2022-07-29T07:02:47.918Z,51.98
2022-07-29T07:05:14.496Z,52.47
2022-07-29T07:07:40.978Z,52.42
2022-07-29T07:10:07.791Z,52.39
2022-07-29T07:12:34.573Z,52.93
2022-07-29T07:15:01.394Z,52.72
2022-07-29T07:17:27.941Z,52.36
2022-07-29T07:19:54.406Z,52.41
2022-07-29T07:22:20.924Z,51.90
2022-07-29T07:24:47.528Z,52.19
2022-07-29T07:27:14.015Z,52.56
2022-07-29T07:29:42.085Z,52.63
2022-07-29T07:32:11.000Z,52.24
2022-07-29T07:34:38.734Z,52.50
2022-07-29T07:37:05.420Z,51.60
2022-07-29T07:39:31.943Z,51.43
2022-07-29T07:41:58.431Z,51.43
2022-07-29T07:44:24.896Z,51.49
2022-07-29T07:46:51.380Z,51.51
2022-07-29T07:49:17.907Z,51.75
2022-07-29T07:51:44.631Z,51.88
2022-07-29T07:54:17.755Z,51.59
2022-07-29T07:56:44.473Z,51.87
2022-07-29T07:59:10.917Z,51.97
2022-07-29T08:01:48.428Z,51.88
2022-07-29T08:04:27.431Z,52.06
2022-07-29T08:06:55.806Z,52.19
2022-07-29T08:09:29.264Z,52.68
2022-07-29T08:11:57.333Z,52.71
2022-07-29T08:14:23.898Z,53.73
2022-07-29T08:16:50.691Z,53.77
2022-07-29T08:19:17.223Z,53.43
2022-07-29T08:21:43.854Z,52.70
2022-07-29T08:24:28.847Z,52.45
2022-07-29T08:26:55.310Z,52.30
2022-07-29T08:29:21.754Z,53.15
2022-07-29T08:31:48.285Z,52.70
2022-07-29T08:34:14.764Z,53.04
2022-07-29T08:36:41.277Z,52.77
2022-07-29T08:39:07.750Z,52.76
2022-07-29T08:41:34.281Z,52.56
2022-07-29T08:44:00.810Z,52.31
2022-07-29T08:46:30.399Z,52.62
2022-07-29T08:48:57.126Z,52.66
2022-07-29T08:51:24.061Z,52.77
2022-07-29T08:53:51.255Z,52.59
2022-07-29T08:56:19.090Z,52.24
2022-07-29T08:58:51.765Z,52.72
2022-07-29T09:01:36.136Z,52.02
2022-07-29T09:04:11.833Z,52.44
2022-07-29T09:06:41.093Z,52.68
2022-07-29T09:09:08.552Z,52.85
2022-07-29T09:11:35.353Z,52.36
2022-07-29T09:14:01.956Z,52.78
2022-07-29T09:16:53.136Z,52.61
2022-07-29T09:19:45.418Z,52.33
2022-07-29T09:22:13.017Z,52.24
2022-07-29T09:24:44.622Z,52.42
2022-07-29T09:27:19.752Z,52.28
2022-07-29T09:29:46.202Z,52.24
2022-07-29T09:32:12.956Z,52.38
2022-07-29T09:34:39.585Z,52.43
2022-07-29T09:37:06.373Z,52.41
2022-07-29T09:39:35.550Z,52.91
2022-07-29T09:42:05.004Z,52.43
2022-07-29T09:45:04.368Z,52.54
2022-07-29T09:47:50.089Z,52.30
2022-07-29T09:50:17.071Z,51.88
2022-07-29T09:52:52.178Z,51.66
2022-07-29T09:55:19.838Z,51.54
2022-07-29T09:57:47.439Z,51.86
2022-07-29T10:00:16.346Z,51.66
2022-07-29T10:02:47.007Z,51.94
2022-07-29T10:05:36.857Z,51.81
2022-07-29T10:08:03.737Z,51.38
2022-07-29T10:10:34.784Z,50.97
2022-07-29T10:13:07.103Z,50.84
2022-07-29T10:15:41.771Z,50.66
2022-07-29T10:18:09.524Z,50.68
2022-07-29T10:20:36.730Z,50.94
2022-07-29T10:23:03.232Z,50.42
2022-07-29T10:25:29.904Z,50.52
2022-07-29T10:27:56.628Z,50.67
2022-07-29T10:30:24.954Z,50.32
2022-07-29T10:33:10.394Z,50.12
2022-07-29T10:35:58.749Z,49.97
2022-07-29T10:39:09.934Z,49.86
2022-07-29T10:42:03.754Z,49.67
2022-07-29T10:44:30.623Z,49.56
2022-07-29T10:46:57.589Z,49.64
2022-07-29T10:49:27.210Z,49.57
2022-07-29T10:51:58.543Z,49.00
2022-07-29T10:54:38.053Z,48.80
2022-07-29T10:57:20.179Z,49.03
2022-07-29T10:59:53.080Z,48.91
2022-07-29T11:02:42.131Z,48.24
2022-07-29T11:05:15.615Z,49.06
2022-07-29T11:08:28.397Z,48.83
2022-07-29T11:11:22.127Z,48.60
2022-07-29T11:13:51.400Z,48.15
2022-07-29T11:16:22.977Z,47.78
2022-07-29T11:19:14.012Z,47.84
2022-07-29T11:21:54.106Z,48.14
2022-07-29T11:24:35.696Z,47.78
2022-07-29T11:30:04.735Z,48.43
2022-07-29T11:32:44.628Z,47.78
2022-07-29T11:35:19.161Z,47.93
2022-07-29T11:37:52.230Z,47.48
2022-07-29T11:40:33.889Z,47.14
2022-07-29T11:43:00.407Z,46.90
2022-07-29T11:45:41.886Z,46.98
2022-07-29T11:48:31.957Z,46.03
2022-07-29T11:51:00.036Z,46.36
2022-07-29T11:53:29.282Z,46.09
2022-07-29T11:55:59.769Z,45.75
2022-07-29T11:58:27.080Z,45.89
2022-07-29T12:00:55.521Z,45.89
2022-07-29T12:06:18.303Z,46.06
2022-07-29T12:07:03.208Z,45.94
2022-07-29T12:07:03.868Z,48.03
2022-07-29T12:08:45.665Z,46.01
2022-07-29T12:11:20.908Z,45.27
2022-07-29T12:13:49.318Z,45.75
2022-07-29T12:16:16.182Z,46.04
2022-07-29T12:18:59.835Z,45.18
2022-07-29T12:21:26.611Z,45.26
2022-07-29T12:23:57.069Z,45.24
2022-07-29T12:26:28.558Z,46.04
2022-07-29T12:28:55.530Z,45.15
2022-07-29T12:31:44.011Z,45.38
2022-07-29T12:34:10.204Z,44.37
2022-07-29T12:36:37.452Z,44.21
2022-07-29T12:39:04.798Z,43.70
2022-07-29T12:41:31.509Z,43.64
2022-07-29T12:43:58.013Z,44.41
2022-07-29T12:46:24.544Z,43.97
2022-07-29T12:48:58.310Z,44.06
2022-07-29T12:51:39.804Z,44.25
2022-07-29T12:54:11.543Z,43.36
2022-07-29T12:56:43.622Z,43.41
2022-07-29T12:59:20.322Z,43.34
2022-07-29T13:01:51.536Z,43.48
2022-07-29T13:04:32.362Z,42.84
2022-07-29T13:07:17.960Z,43.14
2022-07-29T13:09:49.296Z,42.68
2022-07-29T13:12:15.828Z,42.97
2022-07-29T13:14:47.422Z,42.65
2022-07-29T13:17:14.768Z,43.17
2022-07-29T13:19:49.337Z,42.89
2022-07-29T13:22:18.285Z,42.33
2022-07-29T13:24:57.964Z,42.02
2022-07-29T13:27:26.433Z,40.63
2022-07-29T13:29:54.361Z,40.44
2022-07-29T13:32:28.649Z,40.33
2022-07-29T13:35:00.990Z,39.87
2022-07-29T13:37:30.451Z,39.06
2022-07-29T13:39:57.723Z,39.43
2022-07-29T13:42:24.593Z,39.56
2022-07-29T13:44:52.497Z,39.63
2022-07-29T13:47:20.151Z,39.96
2022-07-29T13:49:46.883Z,39.91
2022-07-29T13:52:13.509Z,39.67
2022-07-29T13:54:42.347Z,39.82
2022-07-29T13:57:10.227Z,39.45
2022-07-29T13:59:37.002Z,39.27
2022-07-29T14:02:03.648Z,38.44
2022-07-29T14:04:30.236Z,38.70
2022-07-29T14:06:56.747Z,38.60
2022-07-29T14:09:23.825Z,38.49
2022-07-29T14:11:51.795Z,38.84
2022-07-29T14:14:18.544Z,38.65
2022-07-29T14:16:50.447Z,38.98
2022-07-29T14:19:18.980Z,39.70
2022-07-29T14:21:46.327Z,39.98
2022-07-29T14:24:17.803Z,40.12
2022-07-29T14:26:48.641Z,40.58
2022-07-29T14:29:15.230Z,40.72
2022-07-29T14:31:41.768Z,40.81
2022-07-29T14:34:08.345Z,40.75
2022-07-29T14:36:34.841Z,40.69
2022-07-29T14:39:01.473Z,40.91
2022-07-29T14:41:29.124Z,40.46
2022-07-29T14:43:55.712Z,40.85
2022-07-29T14:46:22.201Z,40.51
2022-07-29T14:48:48.889Z,40.75
2022-07-29T14:51:15.337Z,40.99
2022-07-29T14:53:41.783Z,40.80
2022-07-29T14:56:35.019Z,40.07
2022-07-29T14:58:54.705Z,40.75
2022-07-29T15:01:21.223Z,40.00
2022-07-29T15:03:47.702Z,39.47
2022-07-29T15:06:14.206Z,39.04
2022-07-29T15:08:40.800Z,38.10
2022-07-29T15:11:07.539Z,38.11
2022-07-29T15:13:34.396Z,37.74
2022-07-29T15:16:01.112Z,37.91
2022-07-29T15:18:27.740Z,37.54
2022-07-29T15:20:54.227Z,36.20
2022-07-29T15:23:20.781Z,36.16
2022-07-29T15:25:47.261Z,35.90
2022-07-29T15:28:13.803Z,36.32
2022-07-29T15:30:43.442Z,35.58
2022-07-29T15:33:10.472Z,35.59
2022-07-29T15:35:40.847Z,35.26
2022-07-29T15:38:07.807Z,35.52
2022-07-29T15:40:34.591Z,35.25
2022-07-29T15:43:06.385Z,35.66
2022-07-29T15:45:41.396Z,35.04
2022-07-29T15:48:09.266Z,35.27
2022-07-29T15:50:35.772Z,34.64
2022-07-29T15:53:02.272Z,34.65
2022-07-29T15:55:28.748Z,34.73
2022-07-29T15:58:00.263Z,35.46
2022-07-29T16:00:27.252Z,34.81
2022-07-29T16:02:53.752Z,35.15
2022-07-29T16:05:20.218Z,35.38
2022-07-29T16:07:46.912Z,35.35
2022-07-29T16:10:13.673Z,35.54
2022-07-29T16:12:40.256Z,35.72
2022-07-29T16:15:10.192Z,36.50
2022-07-29T16:17:37.831Z,36.78
2022-07-29T16:20:05.858Z,37.00
2022-07-29T16:22:32.328Z,36.97
2022-07-29T16:24:58.888Z,36.09
2022-07-29T16:27:35.374Z,36.52
2022-07-29T16:30:06.172Z,35.21
2022-07-29T16:32:32.608Z,38.43
2022-07-29T16:34:59.043Z,40.12
2022-07-29T16:37:25.804Z,40.81
2022-07-29T16:39:55.384Z,42.10
2022-07-29T16:42:44.374Z,42.12
2022-07-29T16:45:08.975Z,42.25
2022-07-29T16:47:36.129Z,42.93
2022-07-29T16:50:02.611Z,43.10
2022-07-29T16:52:29.065Z,43.24
2022-07-29T16:54:55.515Z,43.46
2022-07-29T16:57:21.979Z,43.86
2022-07-29T16:59:50.849Z,43.75
2022-07-29T17:02:17.280Z,44.15
2022-07-29T17:04:43.817Z,44.31
2022-07-29T17:07:10.293Z,44.45
2022-07-29T17:09:36.853Z,44.38
2022-07-29T17:12:03.416Z,44.46
2022-07-29T17:14:31.021Z,44.38
2022-07-29T17:17:03.185Z,44.60
2022-07-29T17:19:32.280Z,44.81
2022-07-29T17:22:05.026Z,44.80
2022-07-29T17:24:35.886Z,45.37
2022-07-29T17:27:02.330Z,45.61
2022-07-29T17:29:28.776Z,45.90
2022-07-29T17:31:55.508Z,46.29
2022-07-29T17:34:21.948Z,46.39
2022-07-29T17:36:48.476Z,46.84
2022-07-29T17:39:14.957Z,47.15
2022-07-29T17:41:41.395Z,47.23
2022-07-29T17:44:09.286Z,47.58
2022-07-29T17:46:35.988Z,47.45
2022-07-29T17:49:02.697Z,47.65
2022-07-29T17:51:29.468Z,48.11
2022-07-29T17:53:55.968Z,48.26
2022-07-29T17:56:22.445Z,48.23
2022-07-29T17:58:49.010Z,48.58
2022-07-29T18:01:16.103Z,48.89
2022-07-29T18:03:43.085Z,49.28
2022-07-29T18:06:12.825Z,49.77
2022-07-29T18:08:39.771Z,50.09
2022-07-29T18:11:06.512Z,50.12
2022-07-29T18:13:33.238Z,50.53
2022-07-29T18:16:00.629Z,50.41
2022-07-29T18:18:27.521Z,50.97
2022-07-29T18:20:54.057Z,50.99
2022-07-29T18:23:20.569Z,51.19
2022-07-29T18:25:47.115Z,51.74
2022-07-29T18:28:13.581Z,51.74
2022-07-29T18:30:40.230Z,51.87
2022-07-29T18:33:21.624Z,52.62
2022-07-29T18:35:50.878Z,53.17
2022-07-29T18:38:17.474Z,53.40
2022-07-29T18:40:45.399Z,53.35
2022-07-29T18:43:12.547Z,53.21
2022-07-29T18:45:39.654Z,52.97
2022-07-29T18:48:08.319Z,53.01
2022-07-29T18:50:40.203Z,53.22
2022-07-29T18:53:08.995Z,52.92
2022-07-29T18:55:35.489Z,53.34
2022-07-29T18:58:02.041Z,53.29
2022-07-29T19:00:28.567Z,53.28
2022-07-29T19:02:55.998Z,53.83
2022-07-29T19:05:23.119Z,53.76
2022-07-29T19:07:49.571Z,53.70
2022-07-29T19:10:16.038Z,53.67
2022-07-29T19:12:42.522Z,54.39
2022-07-29T19:15:10.286Z,56.14
2022-07-29T19:17:36.780Z,58.65
2022-07-29T19:20:04.000Z,61.12
2022-07-29T19:22:30.829Z,62.92
2022-07-29T19:24:57.273Z,64.41
2022-07-29T19:27:24.037Z,65.43
2022-07-29T19:29:50.597Z,66.40
2022-07-29T19:32:24.920Z,66.70
2022-07-29T19:35:11.105Z,67.31
2022-07-29T19:37:37.658Z,67.73
2022-07-29T19:40:05.565Z,68.58
2022-07-29T19:42:32.031Z,69.55
2022-07-29T19:44:58.745Z,70.47
2022-07-29T19:47:25.218Z,70.59
2022-07-29T19:49:51.858Z,71.05
2022-07-29T19:52:18.343Z,71.53
2022-07-29T19:54:44.865Z,71.46
2022-07-29T19:57:11.539Z,71.66
2022-07-29T19:59:38.661Z,72.26
2022-07-29T20:02:05.463Z,72.67
2022-07-29T20:04:31.963Z,73.64
2022-07-29T20:07:01.696Z,73.59
2022-07-29T20:09:28.852Z,74.03
2022-07-29T20:11:55.432Z,74.14
2022-07-29T20:14:22.183Z,73.99
2022-07-29T20:16:49.840Z,74.54
2022-07-29T20:19:18.443Z,74.51
2022-07-29T20:21:46.478Z,73.81
2022-07-29T20:24:14.631Z,73.56
2022-07-29T20:26:41.202Z,73.86
2022-07-29T20:29:07.750Z,73.69
2022-07-29T20:31:34.664Z,73.68
2022-07-29T20:34:01.981Z,73.35
2022-07-29T20:36:29.919Z,73.13
2022-07-29T20:38:57.159Z,73.48
2022-07-29T20:41:28.719Z,73.45
2022-07-29T20:43:55.969Z,73.63
2022-07-29T20:46:24.097Z,73.92
2022-07-29T20:48:51.865Z,74.51
2022-07-29T20:51:18.551Z,74.96
2022-07-29T20:53:48.660Z,74.77
2022-07-29T20:56:17.607Z,75.04
2022-07-29T20:58:45.444Z,75.31
